sensor_id;sensor_type;location;lat;lon;timestamp;temperature;humidity
66710;DHT22;53624;0.000;0.000;2023-06-10T00:01:44;21.70;99.90
66710;DHT22;53624;0.000;0.000;2023-06-10T00:04:13;21.70;99.90
66710;DHT22;53624;0.000;0.000;2023-06-10T00:06:43;21.60;99.90
66710;DHT22;53624;0.000;0.000;2023-06-10T00:09:10;21.60;99.90
66710;DHT22;53624;0.000;0.000;2023-06-10T00:11:40;21.60;99.90
66710;DHT22;53624;0.000;0.000;2023-06-10T00:14:07;21.60;99.90
66710;DHT22;53624;0.000;0.000;2023-06-10T00:16:35;21.60;99.90
66710;DHT22;53624;0.000;0.000;2023-06-10T00:19:06;21.60;99.90
66710;DHT22;53624;0.000;0.000;2023-06-10T00:21:34;21.60;99.90
66710;DHT22;53624;0.000;0.000;2023-06-10T00:24:03;21.60;99.90
66710;DHT22;53624;0.000;0.000;2023-06-10T00:26:31;21.60;99.90
66710;DHT22;53624;0.000;0.000;2023-06-10T00:28:59;21.60;99.90
66710;DHT22;53624;0.000;0.000;2023-06-10T00:31:27;21.60;99.90
66710;DHT22;53624;0.000;0.000;2023-06-10T00:33:55;21.60;99.90
66710;DHT22;53624;0.000;0.000;2023-06-10T00:36:25;21.60;99.90
66710;DHT22;53624;0.000;0.000;2023-06-10T00:38:52;21.50;99.90
66710;DHT22;53624;0.000;0.000;2023-06-10T00:41:20;21.50;99.90
66710;DHT22;53624;0.000;0.000;2023-06-10T00:43:47;21.50;99.90
66710;DHT22;53624;0.000;0.000;2023-06-10T00:46:15;21.50;99.90
66710;DHT22;53624;0.000;0.000;2023-06-10T00:48:42;21.50;99.90
66710;DHT22;53624;0.000;0.000;2023-06-10T00:51:10;21.50;99.90
66710;DHT22;53624;0.000;0.000;2023-06-10T00:53:40;21.50;99.90
66710;DHT22;53624;0.000;0.000;2023-06-10T00:56:08;21.50;99.90
66710;DHT22;53624;0.000;0.000;2023-06-10T00:58:36;21.40;99.90
66710;DHT22;53624;0.000;0.000;2023-06-10T01:01:04;21.40;99.90
66710;DHT22;53624;0.000;0.000;2023-06-10T01:03:31;21.40;99.90
66710;DHT22;53624;0.000;0.000;2023-06-10T01:06:04;21.40;99.90
66710;DHT22;53624;0.000;0.000;2023-06-10T01:08:35;21.40;99.90
66710;DHT22;53624;0.000;0.000;2023-06-10T01:11:07;21.40;99.90
66710;DHT22;53624;0.000;0.000;2023-06-10T01:13:36;21.40;99.90
66710;DHT22;53624;0.000;0.000;2023-06-10T01:16:05;21.40;99.90
66710;DHT22;53624;0.000;0.000;2023-06-10T01:18:33;21.40;99.90
66710;DHT22;53624;0.000;0.000;2023-06-10T01:21:01;21.40;99.90
66710;DHT22;53624;0.000;0.000;2023-06-10T01:23:31;21.40;99.90
66710;DHT22;53624;0.000;0.000;2023-06-10T01:26:00;21.40;99.90
66710;DHT22;53624;0.000;0.000;2023-06-10T01:28:30;21.30;99.90
66710;DHT22;53624;0.000;0.000;2023-06-10T01:31:00;21.30;99.90
66710;DHT22;53624;0.000;0.000;2023-06-10T01:33:35;21.30;99.90
66710;DHT22;53624;0.000;0.000;2023-06-10T01:36:03;21.30;99.90
66710;DHT22;53624;0.000;0.000;2023-06-10T01:38:32;21.30;99.90
66710;DHT22;53624;0.000;0.000;2023-06-10T01:41:00;21.30;99.90
66710;DHT22;53624;0.000;0.000;2023-06-10T01:43:28;21.30;99.90
66710;DHT22;53624;0.000;0.000;2023-06-10T01:45:55;21.30;99.90
66710;DHT22;53624;0.000;0.000;2023-06-10T01:48:23;21.30;99.90
66710;DHT22;53624;0.000;0.000;2023-06-10T01:50:50;21.30;99.90
66710;DHT22;53624;0.000;0.000;2023-06-10T01:53:18;21.30;99.90
66710;DHT22;53624;0.000;0.000;2023-06-10T01:55:47;21.30;99.90
66710;DHT22;53624;0.000;0.000;2023-06-10T01:58:16;21.30;99.90
66710;DHT22;53624;0.000;0.000;2023-06-10T02:00:44;21.30;99.90
66710;DHT22;53624;0.000;0.000;2023-06-10T02:03:12;21.30;99.90
66710;DHT22;53624;0.000;0.000;2023-06-10T02:05:39;21.30;99.90
66710;DHT22;53624;0.000;0.000;2023-06-10T02:08:06;21.30;99.90
66710;DHT22;53624;0.000;0.000;2023-06-10T02:10:34;21.30;99.90
66710;DHT22;53624;0.000;0.000;2023-06-10T02:13:03;21.30;99.90
66710;DHT22;53624;0.000;0.000;2023-06-10T02:15:30;21.20;99.90
66710;DHT22;53624;0.000;0.000;2023-06-10T02:17:58;21.20;99.90
66710;DHT22;53624;0.000;0.000;2023-06-10T02:20:26;21.20;99.90
66710;DHT22;53624;0.000;0.000;2023-06-10T02:22:53;21.20;99.90
66710;DHT22;53624;0.000;0.000;2023-06-10T02:25:21;21.20;99.90
66710;DHT22;53624;0.000;0.000;2023-06-10T02:27:50;21.20;99.90
66710;DHT22;53624;0.000;0.000;2023-06-10T02:30:19;21.20;99.90
66710;DHT22;53624;0.000;0.000;2023-06-10T02:32:46;21.20;99.90
66710;DHT22;53624;0.000;0.000;2023-06-10T02:35:16;21.20;99.90
66710;DHT22;53624;0.000;0.000;2023-06-10T02:37:43;21.20;99.90
66710;DHT22;53624;0.000;0.000;2023-06-10T02:40:11;21.20;99.90
66710;DHT22;53624;0.000;0.000;2023-06-10T02:42:39;21.20;99.90
66710;DHT22;53624;0.000;0.000;2023-06-10T02:45:07;21.20;99.90
66710;DHT22;53624;0.000;0.000;2023-06-10T02:47:41;21.20;99.90
66710;DHT22;53624;0.000;0.000;2023-06-10T02:50:09;21.20;99.90
66710;DHT22;53624;0.000;0.000;2023-06-10T02:52:45;21.10;99.90
66710;DHT22;53624;0.000;0.000;2023-06-10T02:55:13;21.10;99.90
66710;DHT22;53624;0.000;0.000;2023-06-10T02:57:47;21.10;99.90
66710;DHT22;53624;0.000;0.000;2023-06-10T03:00:15;21.10;99.90
66710;DHT22;53624;0.000;0.000;2023-06-10T03:02:45;21.10;99.90
66710;DHT22;53624;0.000;0.000;2023-06-10T03:05:12;21.10;99.90
66710;DHT22;53624;0.000;0.000;2023-06-10T03:07:43;21.10;99.90
66710;DHT22;53624;0.000;0.000;2023-06-10T03:10:14;21.10;99.90
66710;DHT22;53624;0.000;0.000;2023-06-10T03:12:42;21.10;99.90
66710;DHT22;53624;0.000;0.000;2023-06-10T03:15:10;21.10;99.90
66710;DHT22;53624;0.000;0.000;2023-06-10T03:17:37;21.10;99.90
66710;DHT22;53624;0.000;0.000;2023-06-10T03:20:07;21.10;99.90
66710;DHT22;53624;0.000;0.000;2023-06-10T03:22:37;21.10;99.90
66710;DHT22;53624;0.000;0.000;2023-06-10T03:25:08;21.10;99.90
66710;DHT22;53624;0.000;0.000;2023-06-10T03:27:43;21.10;99.90
66710;DHT22;53624;0.000;0.000;2023-06-10T03:30:12;21.10;99.90
66710;DHT22;53624;0.000;0.000;2023-06-10T03:32:41;21.10;99.90
66710;DHT22;53624;0.000;0.000;2023-06-10T03:35:12;21.10;99.90
66710;DHT22;53624;0.000;0.000;2023-06-10T03:37:41;21.10;99.90
66710;DHT22;53624;0.000;0.000;2023-06-10T03:40:08;21.10;99.90
66710;DHT22;53624;0.000;0.000;2023-06-10T03:42:38;21.00;99.90
66710;DHT22;53624;0.000;0.000;2023-06-10T03:45:07;21.00;99.90
66710;DHT22;53624;0.000;0.000;2023-06-10T03:47:35;21.00;99.90
66710;DHT22;53624;0.000;0.000;2023-06-10T03:50:06;21.10;99.90
66710;DHT22;53624;0.000;0.000;2023-06-10T03:52:37;21.00;99.90
66710;DHT22;53624;0.000;0.000;2023-06-10T03:55:06;21.00;99.90
66710;DHT22;53624;0.000;0.000;2023-06-10T03:57:33;21.00;99.90
66710;DHT22;53624;0.000;0.000;2023-06-10T04:00:01;21.00;99.90
66710;DHT22;53624;0.000;0.000;2023-06-10T04:02:41;21.00;99.90
66710;DHT22;53624;0.000;0.000;2023-06-10T04:05:17;21.00;99.90
66710;DHT22;53624;0.000;0.000;2023-06-10T04:07:46;21.00;99.90
66710;DHT22;53624;0.000;0.000;2023-06-10T04:10:14;21.00;99.90
66710;DHT22;53624;0.000;0.000;2023-06-10T04:12:42;21.00;99.90
66710;DHT22;53624;0.000;0.000;2023-06-10T04:15:09;21.00;99.90
66710;DHT22;53624;0.000;0.000;2023-06-10T04:17:37;21.00;99.90
66710;DHT22;53624;0.000;0.000;2023-06-10T04:20:05;21.00;99.90
66710;DHT22;53624;0.000;0.000;2023-06-10T04:22:36;21.00;99.90
66710;DHT22;53624;0.000;0.000;2023-06-10T04:25:05;21.00;99.90
66710;DHT22;53624;0.000;0.000;2023-06-10T04:27:34;21.00;99.90
66710;DHT22;53624;0.000;0.000;2023-06-10T04:30:02;21.00;99.90
66710;DHT22;53624;0.000;0.000;2023-06-10T04:32:31;21.00;99.90
66710;DHT22;53624;0.000;0.000;2023-06-10T04:34:59;21.00;99.90
66710;DHT22;53624;0.000;0.000;2023-06-10T04:37:26;21.00;99.90
66710;DHT22;53624;0.000;0.000;2023-06-10T04:39:55;21.00;99.90
66710;DHT22;53624;0.000;0.000;2023-06-10T04:42:24;21.00;99.90
66710;DHT22;53624;0.000;0.000;2023-06-10T04:44:52;21.00;99.90
66710;DHT22;53624;0.000;0.000;2023-06-10T04:47:20;21.00;99.90
66710;DHT22;53624;0.000;0.000;2023-06-10T04:49:47;21.00;99.90
66710;DHT22;53624;0.000;0.000;2023-06-10T04:52:15;21.00;99.90
66710;DHT22;53624;0.000;0.000;2023-06-10T04:54:42;21.00;99.90
66710;DHT22;53624;0.000;0.000;2023-06-10T04:57:10;21.00;99.90
66710;DHT22;53624;0.000;0.000;2023-06-10T04:59:39;21.00;99.90
66710;DHT22;53624;0.000;0.000;2023-06-10T05:02:06;21.00;99.90
66710;DHT22;53624;0.000;0.000;2023-06-10T05:04:34;21.00;99.90
66710;DHT22;53624;0.000;0.000;2023-06-10T05:07:01;21.00;99.90
66710;DHT22;53624;0.000;0.000;2023-06-10T05:09:29;21.00;99.90
66710;DHT22;53624;0.000;0.000;2023-06-10T05:11:57;21.00;99.90
66710;DHT22;53624;0.000;0.000;2023-06-10T05:14:24;21.00;99.90
66710;DHT22;53624;0.000;0.000;2023-06-10T05:16:53;21.10;99.90
66710;DHT22;53624;0.000;0.000;2023-06-10T05:19:21;21.10;99.90
66710;DHT22;53624;0.000;0.000;2023-06-10T05:21:48;21.00;99.90
66710;DHT22;53624;0.000;0.000;2023-06-10T05:24:16;21.10;99.90
66710;DHT22;53624;0.000;0.000;2023-06-10T05:26:43;21.10;99.90
66710;DHT22;53624;0.000;0.000;2023-06-10T05:29:10;21.10;99.90
66710;DHT22;53624;0.000;0.000;2023-06-10T05:31:38;21.20;99.90
66710;DHT22;53624;0.000;0.000;2023-06-10T05:34:07;21.20;99.90
66710;DHT22;53624;0.000;0.000;2023-06-10T05:36:34;21.30;99.90
66710;DHT22;53624;0.000;0.000;2023-06-10T05:39:02;21.40;99.90
66710;DHT22;53624;0.000;0.000;2023-06-10T05:41:30;21.50;99.90
66710;DHT22;53624;0.000;0.000;2023-06-10T05:43:57;21.50;99.90
66710;DHT22;53624;0.000;0.000;2023-06-10T05:46:25;21.70;99.90
66710;DHT22;53624;0.000;0.000;2023-06-10T05:48:52;21.70;99.90
66710;DHT22;53624;0.000;0.000;2023-06-10T05:51:21;21.80;99.90
66710;DHT22;53624;0.000;0.000;2023-06-10T05:53:48;21.90;99.90
66710;DHT22;53624;0.000;0.000;2023-06-10T05:56:16;21.90;99.90
66710;DHT22;53624;0.000;0.000;2023-06-10T05:58:43;21.90;99.90
66710;DHT22;53624;0.000;0.000;2023-06-10T06:01:11;21.80;99.90
66710;DHT22;53624;0.000;0.000;2023-06-10T06:03:38;21.80;99.90
66710;DHT22;53624;0.000;0.000;2023-06-10T06:06:06;21.70;99.90
66710;DHT22;53624;0.000;0.000;2023-06-10T06:08:35;21.70;99.90
66710;DHT22;53624;0.000;0.000;2023-06-10T06:11:02;21.70;99.90
66710;DHT22;53624;0.000;0.000;2023-06-10T06:13:30;21.80;99.90
66710;DHT22;53624;0.000;0.000;2023-06-10T06:15:57;21.80;99.90
66710;DHT22;53624;0.000;0.000;2023-06-10T06:18:25;21.80;99.90
66710;DHT22;53624;0.000;0.000;2023-06-10T06:20:52;21.80;99.90
66710;DHT22;53624;0.000;0.000;2023-06-10T06:23:19;21.80;99.90
66710;DHT22;53624;0.000;0.000;2023-06-10T06:25:48;21.80;99.90
66710;DHT22;53624;0.000;0.000;2023-06-10T06:28:16;21.90;99.90
66710;DHT22;53624;0.000;0.000;2023-06-10T06:30:44;21.90;99.90
66710;DHT22;53624;0.000;0.000;2023-06-10T06:33:12;22.00;99.90
66710;DHT22;53624;0.000;0.000;2023-06-10T06:35:39;22.00;99.90
66710;DHT22;53624;0.000;0.000;2023-06-10T06:38:07;22.00;99.90
66710;DHT22;53624;0.000;0.000;2023-06-10T06:40:35;22.00;99.90
66710;DHT22;53624;0.000;0.000;2023-06-10T06:43:04;22.00;99.90
66710;DHT22;53624;0.000;0.000;2023-06-10T06:45:56;22.10;99.90
66710;DHT22;53624;0.000;0.000;2023-06-10T06:48:23;22.10;99.90
66710;DHT22;53624;0.000;0.000;2023-06-10T06:50:51;22.10;99.90
66710;DHT22;53624;0.000;0.000;2023-06-10T06:53:18;22.20;99.90
66710;DHT22;53624;0.000;0.000;2023-06-10T06:55:46;22.30;99.90
66710;DHT22;53624;0.000;0.000;2023-06-10T06:58:15;22.30;99.90
66710;DHT22;53624;0.000;0.000;2023-06-10T07:00:42;22.30;99.90
66710;DHT22;53624;0.000;0.000;2023-06-10T07:03:10;22.40;99.90
66710;DHT22;53624;0.000;0.000;2023-06-10T07:05:37;22.40;99.90
66710;DHT22;53624;0.000;0.000;2023-06-10T07:08:05;22.40;99.90
66710;DHT22;53624;0.000;0.000;2023-06-10T07:10:32;22.40;99.90
66710;DHT22;53624;0.000;0.000;2023-06-10T07:13:00;22.60;99.90
66710;DHT22;53624;0.000;0.000;2023-06-10T07:15:29;22.70;99.90
66710;DHT22;53624;0.000;0.000;2023-06-10T07:17:56;22.80;99.90
66710;DHT22;53624;0.000;0.000;2023-06-10T07:20:23;23.20;99.90
66710;DHT22;53624;0.000;0.000;2023-06-10T07:22:51;23.80;99.90
66710;DHT22;53624;0.000;0.000;2023-06-10T07:25:18;24.40;99.90
66710;DHT22;53624;0.000;0.000;2023-06-10T07:27:46;25.00;99.90
66710;DHT22;53624;0.000;0.000;2023-06-10T07:30:13;25.00;99.90
66710;DHT22;53624;0.000;0.000;2023-06-10T07:32:42;24.90;99.90
66710;DHT22;53624;0.000;0.000;2023-06-10T07:35:10;25.10;99.90
66710;DHT22;53624;0.000;0.000;2023-06-10T07:37:38;25.70;99.90
66710;DHT22;53624;0.000;0.000;2023-06-10T07:40:05;25.50;99.90
66710;DHT22;53624;0.000;0.000;2023-06-10T07:42:34;25.40;99.90
66710;DHT22;53624;0.000;0.000;2023-06-10T07:45:02;25.90;99.80
66710;DHT22;53624;0.000;0.000;2023-06-10T07:47:29;26.40;98.50
66710;DHT22;53624;0.000;0.000;2023-06-10T07:49:58;27.00;96.70
66710;DHT22;53624;0.000;0.000;2023-06-10T07:52:26;27.00;97.30
66710;DHT22;53624;0.000;0.000;2023-06-10T07:54:54;26.80;97.20
66710;DHT22;53624;0.000;0.000;2023-06-10T07:57:22;26.60;97.60
66710;DHT22;53624;0.000;0.000;2023-06-10T07:59:49;26.40;97.90
66710;DHT22;53624;0.000;0.000;2023-06-10T08:02:16;26.40;99.20
66710;DHT22;53624;0.000;0.000;2023-06-10T08:04:44;26.40;98.30
66710;DHT22;53624;0.000;0.000;2023-06-10T08:07:13;26.30;98.30
66710;DHT22;53624;0.000;0.000;2023-06-10T08:09:40;26.20;97.90
66710;DHT22;53624;0.000;0.000;2023-06-10T08:12:08;26.20;97.80
66710;DHT22;53624;0.000;0.000;2023-06-10T08:14:39;26.30;97.60
66710;DHT22;53624;0.000;0.000;2023-06-10T08:17:06;25.50;97.90
66710;DHT22;53624;0.000;0.000;2023-06-10T08:19:33;25.20;99.30
66710;DHT22;53624;0.000;0.000;2023-06-10T08:22:01;25.20;99.90
66710;DHT22;53624;0.000;0.000;2023-06-10T08:24:30;25.60;99.90
66710;DHT22;53624;0.000;0.000;2023-06-10T08:26:57;26.00;99.60
66710;DHT22;53624;0.000;0.000;2023-06-10T08:29:25;26.20;99.70
66710;DHT22;53624;0.000;0.000;2023-06-10T08:31:52;26.20;98.60
66710;DHT22;53624;0.000;0.000;2023-06-10T08:34:20;26.20;99.70
66710;DHT22;53624;0.000;0.000;2023-06-10T08:36:47;26.50;99.90
66710;DHT22;53624;0.000;0.000;2023-06-10T08:39:19;26.60;99.10
66710;DHT22;53624;0.000;0.000;2023-06-10T08:41:49;26.50;97.80
66710;DHT22;53624;0.000;0.000;2023-06-10T08:44:21;26.30;97.50
66710;DHT22;53624;0.000;0.000;2023-06-10T08:46:49;26.40;98.80
66710;DHT22;53624;0.000;0.000;2023-06-10T08:49:18;26.60;99.90
66710;DHT22;53624;0.000;0.000;2023-06-10T08:51:47;26.80;97.90
66710;DHT22;53624;0.000;0.000;2023-06-10T08:54:17;26.70;96.70
66710;DHT22;53624;0.000;0.000;2023-06-10T08:56:44;26.80;97.00
66710;DHT22;53624;0.000;0.000;2023-06-10T08:59:16;26.90;98.80
66710;DHT22;53624;0.000;0.000;2023-06-10T09:01:43;26.80;97.90
66710;DHT22;53624;0.000;0.000;2023-06-10T09:04:11;26.60;97.50
66710;DHT22;53624;0.000;0.000;2023-06-10T09:06:39;26.80;97.00
66710;DHT22;53624;0.000;0.000;2023-06-10T09:09:07;27.00;96.70
66710;DHT22;53624;0.000;0.000;2023-06-10T09:11:34;27.10;96.40
66710;DHT22;53624;0.000;0.000;2023-06-10T09:14:02;27.20;95.60
66710;DHT22;53624;0.000;0.000;2023-06-10T09:16:31;27.20;97.10
66710;DHT22;53624;0.000;0.000;2023-06-10T09:18:58;27.40;95.20
66710;DHT22;53624;0.000;0.000;2023-06-10T09:21:25;27.40;97.00
66710;DHT22;53624;0.000;0.000;2023-06-10T09:23:53;27.50;95.80
66710;DHT22;53624;0.000;0.000;2023-06-10T09:26:21;27.50;94.70
66710;DHT22;53624;0.000;0.000;2023-06-10T09:28:57;27.10;96.70
66710;DHT22;53624;0.000;0.000;2023-06-10T09:31:24;27.30;96.20
66710;DHT22;53624;0.000;0.000;2023-06-10T09:33:53;27.50;95.40
66710;DHT22;53624;0.000;0.000;2023-06-10T09:36:21;27.50;95.50
66710;DHT22;53624;0.000;0.000;2023-06-10T09:38:49;27.50;95.50
66710;DHT22;53624;0.000;0.000;2023-06-10T09:41:16;27.30;95.10
66710;DHT22;53624;0.000;0.000;2023-06-10T09:43:44;27.40;95.30
66710;DHT22;53624;0.000;0.000;2023-06-10T09:46:15;27.50;94.30
66710;DHT22;53624;0.000;0.000;2023-06-10T09:48:44;27.60;94.00
66710;DHT22;53624;0.000;0.000;2023-06-10T09:51:13;27.10;97.40
66710;DHT22;53624;0.000;0.000;2023-06-10T09:53:41;27.20;96.10
66710;DHT22;53624;0.000;0.000;2023-06-10T09:56:08;27.60;95.70
66710;DHT22;53624;0.000;0.000;2023-06-10T09:58:36;27.70;96.70
66710;DHT22;53624;0.000;0.000;2023-06-10T10:01:08;27.40;95.60
66710;DHT22;53624;0.000;0.000;2023-06-10T10:03:42;27.30;95.60
66710;DHT22;53624;0.000;0.000;2023-06-10T10:06:10;27.20;94.90
66710;DHT22;53624;0.000;0.000;2023-06-10T10:08:39;26.90;94.90
66710;DHT22;53624;0.000;0.000;2023-06-10T10:11:07;26.70;95.50
66710;DHT22;53624;0.000;0.000;2023-06-10T10:13:34;26.50;95.70
66710;DHT22;53624;0.000;0.000;2023-06-10T10:16:04;26.50;95.60
66710;DHT22;53624;0.000;0.000;2023-06-10T10:18:31;26.50;95.40
66710;DHT22;53624;0.000;0.000;2023-06-10T10:21:00;26.50;94.90
66710;DHT22;53624;0.000;0.000;2023-06-10T10:23:32;26.50;95.50
66710;DHT22;53624;0.000;0.000;2023-06-10T10:26:04;26.40;95.70
66710;DHT22;53624;0.000;0.000;2023-06-10T10:28:35;26.30;97.00
66710;DHT22;53624;0.000;0.000;2023-06-10T10:31:07;26.30;98.10
66710;DHT22;53624;0.000;0.000;2023-06-10T10:33:39;26.30;99.40
66710;DHT22;53624;0.000;0.000;2023-06-10T10:36:07;26.10;99.90
66710;DHT22;53624;0.000;0.000;2023-06-10T10:38:35;26.00;99.90
66710;DHT22;53624;0.000;0.000;2023-06-10T10:41:04;25.80;99.90
66710;DHT22;53624;0.000;0.000;2023-06-10T10:43:32;25.60;99.90
66710;DHT22;53624;0.000;0.000;2023-06-10T10:46:00;25.50;99.90
66710;DHT22;53624;0.000;0.000;2023-06-10T10:48:32;25.40;99.90
66710;DHT22;53624;0.000;0.000;2023-06-10T10:51:00;25.30;99.90
66710;DHT22;53624;0.000;0.000;2023-06-10T10:53:29;25.20;99.90
66710;DHT22;53624;0.000;0.000;2023-06-10T10:55:59;25.10;99.90
66710;DHT22;53624;0.000;0.000;2023-06-10T10:58:28;25.10;99.90
66710;DHT22;53624;0.000;0.000;2023-06-10T11:00:56;25.00;99.90
66710;DHT22;53624;0.000;0.000;2023-06-10T11:03:24;25.00;99.90
66710;DHT22;53624;0.000;0.000;2023-06-10T11:05:56;25.10;99.90
66710;DHT22;53624;0.000;0.000;2023-06-10T11:11:20;24.90;99.90
66710;DHT22;53624;0.000;0.000;2023-06-10T11:16:39;24.90;99.90
66710;DHT22;53624;0.000;0.000;2023-06-10T11:19:08;24.90;99.90
66710;DHT22;53624;0.000;0.000;2023-06-10T11:21:57;24.90;99.90
66710;DHT22;53624;0.000;0.000;2023-06-10T11:24:25;24.90;99.90
66710;DHT22;53624;0.000;0.000;2023-06-10T11:26:53;25.00;99.90
66710;DHT22;53624;0.000;0.000;2023-06-10T11:29:20;25.10;99.90
66710;DHT22;53624;0.000;0.000;2023-06-10T11:31:50;25.20;99.90
66710;DHT22;53624;0.000;0.000;2023-06-10T11:34:21;25.40;99.90
66710;DHT22;53624;0.000;0.000;2023-06-10T11:36:50;25.40;99.90
66710;DHT22;53624;0.000;0.000;2023-06-10T11:39:19;25.50;99.90
66710;DHT22;53624;0.000;0.000;2023-06-10T11:41:46;25.70;99.90
66710;DHT22;53624;0.000;0.000;2023-06-10T11:44:15;25.70;99.90
66710;DHT22;53624;0.000;0.000;2023-06-10T11:46:42;25.70;99.90
66710;DHT22;53624;0.000;0.000;2023-06-10T11:49:12;25.80;99.90
66710;DHT22;53624;0.000;0.000;2023-06-10T11:51:40;25.90;99.90
66710;DHT22;53624;0.000;0.000;2023-06-10T11:54:15;25.90;99.90
66710;DHT22;53624;0.000;0.000;2023-06-10T11:56:43;26.20;99.90
66710;DHT22;53624;0.000;0.000;2023-06-10T11:59:10;26.50;99.90
66710;DHT22;53624;0.000;0.000;2023-06-10T12:01:39;26.40;99.90
66710;DHT22;53624;0.000;0.000;2023-06-10T12:04:09;26.60;99.90
66710;DHT22;53624;0.000;0.000;2023-06-10T12:06:39;26.90;99.90
66710;DHT22;53624;0.000;0.000;2023-06-10T12:09:07;27.10;99.90
66710;DHT22;53624;0.000;0.000;2023-06-10T12:11:34;27.30;99.90
66710;DHT22;53624;0.000;0.000;2023-06-10T12:14:02;27.40;99.90
66710;DHT22;53624;0.000;0.000;2023-06-10T12:16:30;27.60;99.90
66710;DHT22;53624;0.000;0.000;2023-06-10T12:19:01;27.60;99.90
66710;DHT22;53624;0.000;0.000;2023-06-10T12:21:29;27.50;99.90
66710;DHT22;53624;0.000;0.000;2023-06-10T12:24:02;27.60;99.90
66710;DHT22;53624;0.000;0.000;2023-06-10T12:26:34;27.50;99.40
66710;DHT22;53624;0.000;0.000;2023-06-10T12:29:02;27.20;99.90
66710;DHT22;53624;0.000;0.000;2023-06-10T12:31:29;27.00;99.90
66710;DHT22;53624;0.000;0.000;2023-06-10T12:34:07;26.90;99.90
66710;DHT22;53624;0.000;0.000;2023-06-10T12:36:34;26.80;99.90
66710;DHT22;53624;0.000;0.000;2023-06-10T12:39:04;26.70;99.90
66710;DHT22;53624;0.000;0.000;2023-06-10T12:41:31;26.60;99.90
66710;DHT22;53624;0.000;0.000;2023-06-10T12:44:00;26.50;99.90
66710;DHT22;53624;0.000;0.000;2023-06-10T12:46:35;26.40;99.90
66710;DHT22;53624;0.000;0.000;2023-06-10T12:49:02;26.20;99.90
66710;DHT22;53624;0.000;0.000;2023-06-10T12:51:30;26.10;99.90
66710;DHT22;53624;0.000;0.000;2023-06-10T12:53:58;26.00;99.90
66710;DHT22;53624;0.000;0.000;2023-06-10T12:56:26;26.00;99.90
66710;DHT22;53624;0.000;0.000;2023-06-10T12:58:54;25.90;99.90
66710;DHT22;53624;0.000;0.000;2023-06-10T13:01:21;26.10;99.90
66710;DHT22;53624;0.000;0.000;2023-06-10T13:03:49;26.20;99.90
66710;DHT22;53624;0.000;0.000;2023-06-10T13:06:16;26.40;99.90
66710;DHT22;53624;0.000;0.000;2023-06-10T13:08:46;26.60;99.90
66710;DHT22;53624;0.000;0.000;2023-06-10T13:11:14;26.80;99.90
66710;DHT22;53624;0.000;0.000;2023-06-10T13:13:43;26.70;99.90
66710;DHT22;53624;0.000;0.000;2023-06-10T13:16:12;26.60;99.90
66710;DHT22;53624;0.000;0.000;2023-06-10T13:18:40;26.50;99.90
66710;DHT22;53624;0.000;0.000;2023-06-10T13:21:10;26.50;99.90
66710;DHT22;53624;0.000;0.000;2023-06-10T13:23:38;26.40;99.90
66710;DHT22;53624;0.000;0.000;2023-06-10T13:26:06;26.50;99.90
66710;DHT22;53624;0.000;0.000;2023-06-10T13:28:34;26.40;99.90
66710;DHT22;53624;0.000;0.000;2023-06-10T13:31:03;26.50;99.90
66710;DHT22;53624;0.000;0.000;2023-06-10T13:33:31;26.70;99.90
66710;DHT22;53624;0.000;0.000;2023-06-10T13:35:59;26.60;99.90
66710;DHT22;53624;0.000;0.000;2023-06-10T13:38:27;26.50;99.90
66710;DHT22;53624;0.000;0.000;2023-06-10T13:40:55;26.80;99.90
66710;DHT22;53624;0.000;0.000;2023-06-10T13:43:23;26.80;99.90
66710;DHT22;53624;0.000;0.000;2023-06-10T13:45:50;26.70;99.90
66710;DHT22;53624;0.000;0.000;2023-06-10T13:48:20;26.60;99.90
66710;DHT22;53624;0.000;0.000;2023-06-10T13:50:47;26.60;99.90
66710;DHT22;53624;0.000;0.000;2023-06-10T13:53:15;26.60;99.90
66710;DHT22;53624;0.000;0.000;2023-06-10T13:55:43;26.60;99.90
66710;DHT22;53624;0.000;0.000;2023-06-10T13:58:10;26.60;99.90
66710;DHT22;53624;0.000;0.000;2023-06-10T14:00:38;26.50;99.90
66710;DHT22;53624;0.000;0.000;2023-06-10T14:03:05;26.50;99.90
66710;DHT22;53624;0.000;0.000;2023-06-10T14:05:34;26.40;99.90
66710;DHT22;53624;0.000;0.000;2023-06-10T14:08:01;26.30;99.90
66710;DHT22;53624;0.000;0.000;2023-06-10T14:10:29;26.30;99.90
66710;DHT22;53624;0.000;0.000;2023-06-10T14:12:56;26.30;99.90
66710;DHT22;53624;0.000;0.000;2023-06-10T14:15:24;26.30;99.90
66710;DHT22;53624;0.000;0.000;2023-06-10T14:17:51;26.30;99.90
66710;DHT22;53624;0.000;0.000;2023-06-10T14:20:19;26.30;99.90
66710;DHT22;53624;0.000;0.000;2023-06-10T14:22:48;26.30;99.90
66710;DHT22;53624;0.000;0.000;2023-06-10T14:25:16;26.30;99.90
66710;DHT22;53624;0.000;0.000;2023-06-10T14:27:44;26.20;99.90
66710;DHT22;53624;0.000;0.000;2023-06-10T14:30:13;26.20;99.90
66710;DHT22;53624;0.000;0.000;2023-06-10T14:32:40;26.10;99.90
66710;DHT22;53624;0.000;0.000;2023-06-10T14:35:08;26.10;99.90
66710;DHT22;53624;0.000;0.000;2023-06-10T14:37:36;26.00;99.90
66710;DHT22;53624;0.000;0.000;2023-06-10T14:40:06;26.00;99.90
66710;DHT22;53624;0.000;0.000;2023-06-10T14:42:34;25.90;99.90
66710;DHT22;53624;0.000;0.000;2023-06-10T14:45:01;25.90;99.90
66710;DHT22;53624;0.000;0.000;2023-06-10T14:47:29;25.90;99.90
66710;DHT22;53624;0.000;0.000;2023-06-10T14:49:56;25.90;99.90
66710;DHT22;53624;0.000;0.000;2023-06-10T14:52:24;25.90;99.90
66710;DHT22;53624;0.000;0.000;2023-06-10T14:54:51;25.90;99.90
66710;DHT22;53624;0.000;0.000;2023-06-10T14:57:20;26.00;99.90
66710;DHT22;53624;0.000;0.000;2023-06-10T14:59:49;26.10;99.90
66710;DHT22;53624;0.000;0.000;2023-06-10T15:02:16;26.20;99.90
66710;DHT22;53624;0.000;0.000;2023-06-10T15:04:44;26.20;99.90
66710;DHT22;53624;0.000;0.000;2023-06-10T15:07:12;26.30;99.90
66710;DHT22;53624;0.000;0.000;2023-06-10T15:09:41;26.20;99.90
66710;DHT22;53624;0.000;0.000;2023-06-10T15:12:09;26.10;99.90
66710;DHT22;53624;0.000;0.000;2023-06-10T15:14:38;26.10;99.90
66710;DHT22;53624;0.000;0.000;2023-06-10T15:17:05;26.00;99.90
66710;DHT22;53624;0.000;0.000;2023-06-10T15:19:33;25.90;99.90
66710;DHT22;53624;0.000;0.000;2023-06-10T15:22:00;25.90;99.90
66710;DHT22;53624;0.000;0.000;2023-06-10T15:24:28;25.70;99.90
66710;DHT22;53624;0.000;0.000;2023-06-10T15:26:55;25.70;99.90
66710;DHT22;53624;0.000;0.000;2023-06-10T15:29:23;25.60;99.90
66710;DHT22;53624;0.000;0.000;2023-06-10T15:31:52;25.60;99.90
66710;DHT22;53624;0.000;0.000;2023-06-10T15:34:20;25.60;99.90
66710;DHT22;53624;0.000;0.000;2023-06-10T15:36:47;25.60;99.90
66710;DHT22;53624;0.000;0.000;2023-06-10T15:39:15;25.60;99.90
66710;DHT22;53624;0.000;0.000;2023-06-10T15:41:44;25.50;99.90
66710;DHT22;53624;0.000;0.000;2023-06-10T15:44:12;25.60;99.90
66710;DHT22;53624;0.000;0.000;2023-06-10T15:46:39;25.70;99.90
66710;DHT22;53624;0.000;0.000;2023-06-10T15:49:09;25.80;99.90
66710;DHT22;53624;0.000;0.000;2023-06-10T15:51:36;25.90;99.90
66710;DHT22;53624;0.000;0.000;2023-06-10T15:54:04;26.00;99.90
66710;DHT22;53624;0.000;0.000;2023-06-10T15:56:32;25.90;99.90
66710;DHT22;53624;0.000;0.000;2023-06-10T15:58:59;25.80;99.90